createdAt,value
2023-02-15T00:01:13.516Z,16.95
2023-02-15T00:06:16.144Z,17.80
2023-02-15T00:11:38.232Z,16.90
2023-02-15T00:16:41.924Z,17.65
2023-02-15T00:21:48.057Z,17.88
2023-02-15T00:26:50.718Z,17.23
2023-02-15T00:31:53.603Z,17.50
2023-02-15T00:36:55.811Z,16.23
2023-02-15T00:41:58.107Z,16.50
2023-02-15T00:47:00.346Z,16.88
2023-02-15T00:52:02.536Z,16.48
2023-02-15T00:57:04.783Z,15.98
2023-02-15T01:02:06.958Z,16.80
2023-02-15T01:07:09.185Z,16.33
2023-02-15T01:12:11.378Z,16.35
2023-02-15T01:17:13.535Z,17.50
2023-02-15T01:22:15.842Z,15.60
2023-02-15T01:27:18.146Z,18.13
2023-02-15T01:32:20.387Z,15.73
2023-02-15T01:37:22.559Z,16.38
2023-02-15T01:42:26.088Z,15.48
2023-02-15T01:47:45.518Z,15.70
2023-02-15T01:53:03.291Z,17.35
2023-02-15T01:58:05.752Z,16.42
2023-02-15T02:03:08.378Z,16.85
2023-02-15T02:08:11.026Z,17.30
2023-02-15T02:13:13.328Z,17.60
2023-02-15T02:18:33.310Z,17.25
2023-02-15T02:24:01.950Z,17.40
2023-02-15T02:29:28.971Z,17.95
2023-02-15T02:34:58.172Z,16.88
2023-02-15T02:40:12.586Z,16.10
2023-02-15T02:45:52.532Z,15.68
2023-02-15T02:50:54.703Z,15.82
2023-02-15T02:56:22.791Z,17.08
2023-02-15T03:01:33.827Z,16.85
2023-02-15T03:06:52.327Z,17.00
2023-02-15T03:11:54.635Z,18.10
2023-02-15T03:16:57.707Z,16.88
2023-02-15T03:22:10.561Z,16.63
2023-02-15T03:27:19.528Z,17.40
2023-02-15T03:32:23.131Z,17.17
2023-02-15T03:37:38.835Z,17.25
2023-02-15T03:42:42.004Z,17.13
2023-02-15T03:47:48.628Z,17.38
2023-02-15T03:52:51.046Z,17.10
2023-02-15T03:58:12.466Z,17.60
2023-02-15T04:03:17.446Z,17.30
2023-02-15T04:08:19.650Z,16.88
2023-02-15T04:13:32.814Z,15.68
2023-02-15T04:18:57.545Z,16.58
2023-02-15T04:24:18.480Z,15.85
2023-02-15T04:29:24.867Z,16.77
2023-02-15T04:34:27.545Z,17.70
2023-02-15T04:39:33.611Z,16.15
2023-02-15T04:44:35.873Z,17.85
2023-02-15T04:49:38.006Z,17.42
2023-02-15T04:54:40.444Z,17.10
2023-02-15T04:59:42.746Z,18.05
2023-02-15T05:04:45.091Z,15.80
2023-02-15T05:09:47.518Z,16.55
2023-02-15T05:14:49.805Z,17.25
2023-02-15T05:19:52.164Z,17.27
2023-02-15T05:25:12.864Z,16.35
2023-02-15T05:30:15.555Z,16.80
2023-02-15T05:35:18.272Z,17.40
2023-02-15T05:40:20.397Z,21.05
2023-02-15T05:45:22.585Z,18.23
2023-02-15T05:50:24.742Z,19.02
2023-02-15T05:55:27.036Z,18.77
2023-02-15T06:00:29.184Z,18.80
2023-02-15T06:05:31.863Z,19.65
2023-02-15T06:10:34.136Z,20.23
2023-02-15T06:15:36.403Z,22.55
2023-02-15T06:20:38.700Z,22.42
2023-02-15T06:25:40.958Z,22.65
2023-02-15T06:30:43.216Z,22.45
2023-02-15T06:35:47.473Z,19.65
2023-02-15T06:40:49.767Z,20.63
2023-02-15T06:45:52.149Z,22.20
2023-02-15T06:50:54.342Z,22.35
2023-02-15T06:56:04.510Z,21.90
2023-02-15T07:01:10.367Z,23.50
2023-02-15T07:06:13.259Z,23.30
2023-02-15T07:11:33.907Z,23.67
2023-02-15T07:16:36.047Z,24.65
2023-02-15T07:21:38.569Z,22.75
2023-02-15T07:26:40.833Z,22.05
2023-02-15T07:31:47.687Z,22.63
2023-02-15T07:36:52.420Z,22.13
2023-02-15T07:41:54.837Z,22.02
2023-02-15T07:46:57.820Z,21.50
2023-02-15T07:52:02.147Z,21.27
2023-02-15T07:57:04.476Z,21.83
2023-02-15T08:02:11.509Z,19.45
2023-02-15T08:07:13.716Z,19.40
2023-02-15T08:12:15.853Z,18.00
2023-02-15T08:17:18.103Z,18.58
2023-02-15T08:22:20.273Z,16.23
2023-02-15T08:27:27.997Z,17.00
2023-02-15T08:32:30.080Z,17.15
2023-02-15T08:37:32.384Z,17.63
2023-02-15T08:42:35.696Z,17.48
2023-02-15T08:47:37.882Z,18.05
2023-02-15T08:52:40.049Z,18.67
2023-02-15T08:57:46.206Z,19.27
2023-02-15T09:02:48.381Z,18.30
2023-02-15T09:07:50.662Z,18.17
2023-02-15T09:12:53.920Z,18.70
2023-02-15T09:18:02.732Z,16.92
2023-02-15T09:23:04.944Z,15.93
2023-02-15T09:28:07.178Z,15.43
2023-02-15T09:33:09.401Z,16.38
2023-02-15T09:38:13.468Z,17.17
2023-02-15T09:43:34.563Z,15.75
2023-02-15T09:48:41.813Z,14.20
2023-02-15T09:54:12.675Z,14.95
2023-02-15T09:59:42.614Z,14.75
2023-02-15T10:05:22.132Z,14.57
2023-02-15T10:10:49.008Z,16.20
2023-02-15T10:16:17.981Z,14.25
2023-02-15T10:21:41.645Z,13.65
2023-02-15T10:26:47.836Z,12.85
2023-02-15T10:31:56.577Z,13.48
2023-02-15T10:37:10.678Z,15.55
2023-02-15T10:42:36.244Z,15.23
2023-02-15T10:47:53.679Z,14.55
2023-02-15T10:53:30.797Z,13.18
2023-02-15T10:58:35.521Z,14.35
2023-02-15T11:03:43.155Z,13.80
2023-02-15T11:08:52.943Z,13.10
2023-02-15T11:14:01.355Z,12.95
2023-02-15T11:19:49.050Z,13.80
2023-02-15T11:24:51.548Z,12.40
2023-02-15T11:30:02.324Z,13.65
2023-02-15T11:35:13.818Z,13.30
2023-02-15T11:40:29.738Z,12.63
2023-02-15T11:45:35.710Z,13.02
2023-02-15T11:50:38.533Z,13.80
2023-02-15T11:55:41.285Z,12.25
2023-02-15T12:00:47.210Z,11.68
2023-02-15T12:05:54.974Z,12.05
2023-02-15T12:11:09.486Z,11.02
2023-02-15T12:16:14.265Z,11.00
2023-02-15T12:21:30.477Z,12.20
2023-02-15T12:26:36.503Z,11.48
2023-02-15T12:31:42.103Z,10.95
2023-02-15T12:36:48.268Z,10.85
2023-02-15T12:41:56.423Z,11.65
2023-02-15T12:47:05.101Z,10.70
2023-02-15T12:52:25.602Z,10.48
2023-02-15T12:57:30.977Z,11.00
2023-02-15T13:02:49.562Z,9.55
2023-02-15T13:07:57.237Z,11.52
2023-02-15T13:12:59.889Z,9.70
2023-02-15T13:18:04.285Z,10.40
2023-02-15T13:23:14.885Z,9.93
2023-02-15T13:28:20.013Z,10.13
2023-02-15T13:33:33.110Z,10.48
2023-02-15T13:38:46.303Z,9.68
2023-02-15T13:43:52.219Z,9.77
2023-02-15T13:49:18.015Z,10.45
2023-02-15T13:54:26.423Z,10.32
2023-02-15T13:59:46.734Z,9.50
2023-02-15T14:05:18.018Z,9.63
2023-02-15T14:10:29.268Z,8.27
2023-02-15T14:15:36.066Z,9.68
2023-02-15T14:21:15.642Z,9.05
2023-02-15T14:26:35.644Z,9.15
2023-02-15T14:31:47.284Z,8.38
2023-02-15T14:36:52.261Z,8.60
2023-02-15T14:42:01.160Z,8.80
2023-02-15T14:47:13.145Z,8.03
2023-02-15T14:52:15.342Z,7.80
2023-02-15T14:57:17.595Z,8.25
2023-02-15T15:02:43.508Z,8.82
2023-02-15T15:07:59.143Z,8.30
2023-02-15T15:13:30.135Z,8.60
2023-02-15T15:18:45.732Z,8.52
2023-02-15T15:23:48.227Z,9.70
2023-02-15T15:28:50.358Z,8.75
2023-02-15T15:34:10.998Z,9.93
2023-02-15T15:39:56.494Z,10.43
2023-02-15T15:45:27.999Z,11.52
2023-02-15T15:50:30.649Z,11.73
2023-02-15T15:55:35.096Z,13.13
2023-02-15T16:00:46.165Z,15.40
2023-02-15T16:05:54.081Z,14.82
2023-02-15T16:10:56.816Z,17.45
2023-02-15T16:15:59.238Z,20.08
2023-02-15T16:21:03.010Z,19.40
2023-02-15T16:26:14.355Z,21.40
2023-02-15T16:31:17.988Z,28.95
2023-02-15T16:36:26.759Z,29.70
2023-02-15T16:41:30.765Z,29.55
2023-02-15T16:46:37.846Z,22.00
2023-02-15T16:51:45.533Z,19.45
2023-02-15T16:56:48.315Z,22.83
2023-02-15T17:01:52.580Z,24.77
2023-02-15T17:07:21.445Z,25.55
2023-02-15T17:12:56.450Z,22.75
2023-02-15T17:18:06.367Z,23.08
2023-02-15T17:23:19.689Z,19.80
2023-02-15T17:28:32.760Z,24.23
2023-02-15T17:33:35.338Z,27.05
2023-02-15T17:38:39.560Z,30.00
2023-02-15T17:43:43.411Z,34.83
2023-02-15T17:48:49.291Z,32.10
2023-02-15T17:54:10.634Z,24.50
2023-02-15T17:59:14.479Z,28.08
2023-02-15T18:04:35.117Z,31.13
2023-02-15T18:09:55.928Z,37.22
2023-02-15T18:14:59.585Z,31.55
2023-02-15T18:20:06.002Z,23.50
2023-02-15T18:25:14.957Z,25.67
2023-02-15T18:30:21.876Z,28.63
2023-02-15T18:35:31.422Z,32.50
2023-02-15T18:40:36.306Z,31.63
2023-02-15T18:45:40.502Z,33.08
2023-02-15T18:50:42.756Z,36.95
2023-02-15T18:55:45.189Z,36.58
2023-02-15T19:00:49.238Z,33.75
2023-02-15T19:05:51.499Z,28.08
2023-02-15T19:10:53.793Z,25.30
2023-02-15T19:15:56.214Z,31.60
2023-02-15T19:20:58.472Z,32.65
2023-02-15T19:26:01.820Z,37.35
2023-02-15T19:31:04.366Z,37.30
2023-02-15T19:36:17.797Z,36.22
2023-02-15T19:41:33.453Z,32.15
2023-02-15T19:46:37.398Z,33.45
2023-02-15T19:51:40.446Z,32.55
2023-02-15T19:56:42.651Z,31.65
2023-02-15T20:01:44.817Z,32.33
2023-02-15T20:06:49.224Z,34.00
2023-02-15T20:11:55.520Z,36.70
2023-02-15T20:16:57.627Z,46.45
2023-02-15T20:22:14.138Z,38.85
2023-02-15T20:27:18.612Z,38.38
2023-02-15T20:32:21.030Z,36.25
2023-02-15T20:37:29.283Z,38.03
2023-02-15T20:42:31.472Z,38.30
2023-02-15T20:47:33.589Z,37.72
2023-02-15T20:52:35.906Z,38.75
2023-02-15T20:57:38.269Z,39.13
2023-02-15T21:02:43.296Z,40.08
2023-02-15T21:07:46.151Z,45.35
2023-02-15T21:12:49.178Z,45.50
2023-02-15T21:17:51.544Z,43.50
2023-02-15T21:22:54.121Z,44.60
2023-02-15T21:27:56.395Z,43.83
2023-02-15T21:32:58.542Z,47.53
2023-02-15T21:38:00.789Z,42.22
2023-02-15T21:43:21.580Z,39.83
2023-02-15T21:48:23.807Z,43.40
2023-02-15T21:53:30.872Z,45.20
2023-02-15T21:58:36.785Z,41.75
2023-02-15T22:09:27.278Z,40.85
2023-02-15T22:14:37.662Z,41.88
2023-02-15T22:24:42.692Z,45.78
2023-02-15T22:29:45.059Z,43.58
2023-02-15T22:34:47.445Z,38.53
2023-02-15T22:39:49.765Z,35.33
2023-02-15T22:44:54.656Z,34.58
2023-02-15T22:49:56.859Z,38.35
2023-02-15T22:54:58.967Z,36.97
2023-02-15T23:00:04.432Z,38.30
2023-02-15T23:05:06.764Z,35.38
2023-02-15T23:10:21.416Z,35.65
2023-02-15T23:15:23.672Z,28.48
2023-02-15T23:20:26.318Z,28.38
2023-02-15T23:25:28.503Z,26.77
2023-02-15T23:30:30.833Z,28.45
2023-02-15T23:35:33.573Z,28.88
2023-02-15T23:41:11.113Z,26.08
2023-02-15T23:46:25.732Z,27.17
2023-02-15T23:51:32.296Z,27.40
2023-02-15T23:56:34.841Z,25.15
